createdAt,value
2022-08-24T00:01:33.527Z,11.65
2022-08-24T00:04:02.150Z,11.70
2022-08-24T00:06:32.301Z,11.61
2022-08-24T00:09:00.484Z,11.62
2022-08-24T00:11:28.625Z,11.57
2022-08-24T00:13:57.161Z,11.39
2022-08-24T00:16:26.927Z,11.32
2022-08-24T00:18:56.350Z,11.48
2022-08-24T00:21:27.165Z,11.45
2022-08-24T00:23:55.309Z,11.48
2022-08-24T00:26:29.009Z,11.44
2022-08-24T00:28:57.938Z,11.40
2022-08-24T00:31:27.823Z,11.33
2022-08-24T00:33:56.466Z,11.28
2022-08-24T00:36:25.598Z,11.21
2022-08-24T00:38:54.679Z,11.10
2022-08-24T00:41:23.262Z,11.17
2022-08-24T00:43:56.502Z,10.77
2022-08-24T00:46:29.697Z,10.83
2022-08-24T00:49:04.284Z,10.98
2022-08-24T00:51:40.682Z,10.99
2022-08-24T00:54:12.704Z,10.97
2022-08-24T00:56:45.181Z,10.94
2022-08-24T00:59:20.770Z,10.86
2022-08-24T01:01:51.002Z,10.72
2022-08-24T01:04:23.539Z,10.64
2022-08-24T01:06:51.800Z,10.76
2022-08-24T01:09:20.082Z,10.68
2022-08-24T01:11:51.246Z,10.65
2022-08-24T01:14:22.454Z,10.66
2022-08-24T01:17:10.453Z,10.66
2022-08-24T01:19:41.541Z,10.49
2022-08-24T01:22:21.508Z,10.58
2022-08-24T01:24:51.067Z,10.60
2022-08-24T01:27:24.879Z,10.27
2022-08-24T01:29:57.447Z,10.40
2022-08-24T01:32:28.113Z,10.11
2022-08-24T01:34:56.661Z,10.15
2022-08-24T01:37:25.370Z,10.47
2022-08-24T01:39:59.214Z,10.27
2022-08-24T01:42:30.040Z,10.40
2022-08-24T01:44:58.370Z,10.33
2022-08-24T01:47:26.391Z,10.31
2022-08-24T01:49:54.773Z,10.28
2022-08-24T01:52:26.105Z,10.32
2022-08-24T01:54:55.691Z,9.96
2022-08-24T01:57:26.117Z,9.92
2022-08-24T01:59:55.171Z,10.24
2022-08-24T02:02:29.032Z,9.97
2022-08-24T02:04:57.748Z,10.17
2022-08-24T02:07:26.219Z,9.84
2022-08-24T02:09:56.432Z,10.09
2022-08-24T02:12:24.578Z,9.97
2022-08-24T02:14:53.896Z,9.75
2022-08-24T02:17:22.286Z,9.69
2022-08-24T02:19:50.295Z,9.89
2022-08-24T02:22:18.273Z,9.97
2022-08-24T02:24:46.360Z,9.75
2022-08-24T02:27:17.322Z,9.94
2022-08-24T02:29:46.294Z,9.88
2022-08-24T02:32:14.790Z,9.84
2022-08-24T02:34:44.120Z,9.81
2022-08-24T02:37:12.386Z,9.47
2022-08-24T02:39:40.647Z,9.70
2022-08-24T02:42:09.182Z,9.61
2022-08-24T02:44:38.850Z,9.75
2022-08-24T02:47:07.544Z,9.45
2022-08-24T02:49:36.625Z,9.50
2022-08-24T02:52:05.346Z,9.46
2022-08-24T02:54:33.472Z,9.58
2022-08-24T02:57:02.342Z,9.40
2022-08-24T02:59:30.365Z,9.68
2022-08-24T03:01:59.743Z,9.41
2022-08-24T03:04:27.885Z,9.48
2022-08-24T03:06:56.002Z,9.52
2022-08-24T03:09:24.026Z,9.36
2022-08-24T03:11:57.458Z,9.42
2022-08-24T03:14:25.643Z,9.52
2022-08-24T03:16:53.778Z,9.48
2022-08-24T03:19:24.208Z,9.43
2022-08-24T03:21:55.367Z,9.31
2022-08-24T03:24:24.157Z,9.37
2022-08-24T03:26:54.573Z,9.13
2022-08-24T03:29:24.101Z,9.29
2022-08-24T03:31:55.502Z,9.00
2022-08-24T03:34:24.947Z,9.19
2022-08-24T03:36:53.022Z,9.31
2022-08-24T03:39:24.191Z,8.98
2022-08-24T03:41:55.103Z,9.30
2022-08-24T03:44:25.402Z,9.30
2022-08-24T03:46:54.342Z,9.24
2022-08-24T03:49:22.755Z,9.19
2022-08-24T03:51:54.883Z,9.21
2022-08-24T03:54:23.081Z,9.08
2022-08-24T03:56:51.247Z,9.04
2022-08-24T03:59:34.751Z,9.07
2022-08-24T04:02:09.553Z,9.39
2022-08-24T04:04:43.159Z,9.27
2022-08-24T04:07:13.866Z,9.50
2022-08-24T04:09:42.997Z,9.19
2022-08-24T04:12:12.213Z,9.42
2022-08-24T04:14:40.498Z,9.47
2022-08-24T04:17:08.952Z,9.51
2022-08-24T04:19:37.105Z,9.69
2022-08-24T04:22:05.175Z,9.69
2022-08-24T04:24:34.775Z,9.73
2022-08-24T04:27:02.757Z,9.84
2022-08-24T04:29:30.957Z,9.71
2022-08-24T04:31:59.890Z,9.58
2022-08-24T04:34:28.047Z,9.85
2022-08-24T04:36:56.181Z,9.81
2022-08-24T04:39:24.200Z,9.84
2022-08-24T04:41:58.979Z,10.17
2022-08-24T04:44:34.316Z,10.27
2022-08-24T04:47:02.633Z,10.16
2022-08-24T04:49:31.604Z,10.18
2022-08-24T04:51:59.791Z,10.44
2022-08-24T04:54:27.840Z,10.59
2022-08-24T04:56:57.400Z,10.62
2022-08-24T04:59:25.838Z,10.81
2022-08-24T05:01:54.539Z,10.69
2022-08-24T05:04:23.191Z,11.05
2022-08-24T05:07:00.293Z,11.17
2022-08-24T05:09:28.778Z,11.25
2022-08-24T05:11:58.469Z,11.48
2022-08-24T05:14:28.949Z,11.99
2022-08-24T05:16:57.329Z,12.13
2022-08-24T05:19:26.070Z,12.30
2022-08-24T05:21:54.572Z,12.75
2022-08-24T05:24:23.382Z,12.96
2022-08-24T05:26:53.286Z,13.42
2022-08-24T05:29:23.546Z,13.53
2022-08-24T05:31:51.597Z,13.90
2022-08-24T05:34:19.876Z,14.11
2022-08-24T05:36:48.184Z,14.39
2022-08-24T05:39:16.441Z,14.31
2022-08-24T05:41:48.354Z,14.68
2022-08-24T05:44:18.704Z,15.00
2022-08-24T05:46:48.235Z,15.19
2022-08-24T05:49:16.996Z,15.61
2022-08-24T05:51:47.455Z,16.24
2022-08-24T05:54:15.581Z,16.60
2022-08-24T05:56:44.768Z,16.82
2022-08-24T05:59:13.946Z,17.31
2022-08-24T06:01:45.528Z,17.46
2022-08-24T06:04:15.806Z,17.29
2022-08-24T06:06:44.003Z,17.64
2022-08-24T06:09:16.869Z,17.98
2022-08-24T06:11:51.156Z,18.25
2022-08-24T06:14:23.893Z,18.45
2022-08-24T06:16:54.732Z,18.62
2022-08-24T06:19:24.454Z,18.80
2022-08-24T06:21:54.197Z,18.65
2022-08-24T06:24:44.687Z,18.74
2022-08-24T06:27:25.500Z,18.50
2022-08-24T06:29:56.642Z,18.60
2022-08-24T06:32:26.059Z,18.36
2022-08-24T06:34:59.024Z,18.13
2022-08-24T06:37:29.345Z,17.99
2022-08-24T06:39:59.178Z,17.88
2022-08-24T06:42:29.420Z,17.82
2022-08-24T06:44:57.323Z,17.72
2022-08-24T06:47:25.392Z,17.44
2022-08-24T06:49:53.496Z,17.57
2022-08-24T06:52:22.958Z,17.58
2022-08-24T06:54:51.227Z,17.78
2022-08-24T06:57:19.221Z,17.82
2022-08-24T06:59:48.210Z,17.88
2022-08-24T07:02:19.002Z,17.79
2022-08-24T07:04:47.219Z,18.02
2022-08-24T07:07:15.422Z,18.06
2022-08-24T07:09:45.541Z,18.07
2022-08-24T07:12:13.456Z,18.18
2022-08-24T07:14:41.554Z,18.29
2022-08-24T07:17:09.485Z,18.37
2022-08-24T07:19:37.911Z,18.23
2022-08-24T07:22:05.998Z,18.46
2022-08-24T07:24:33.994Z,18.56
2022-08-24T07:27:03.429Z,18.63
2022-08-24T07:29:47.223Z,18.65
2022-08-24T07:32:18.542Z,18.74
2022-08-24T07:34:46.780Z,18.87
2022-08-24T07:37:14.726Z,19.06
2022-08-24T07:39:42.794Z,19.26
2022-08-24T07:42:14.975Z,19.41
2022-08-24T07:44:46.952Z,19.37
2022-08-24T07:47:37.088Z,19.33
2022-08-24T07:50:03.251Z,19.17
2022-08-24T07:52:32.542Z,19.19
2022-08-24T07:55:01.435Z,19.20
2022-08-24T07:57:33.665Z,19.21
2022-08-24T08:00:02.696Z,19.36
2022-08-24T08:02:35.106Z,19.58
2022-08-24T08:05:05.107Z,19.59
2022-08-24T08:07:33.086Z,19.63
2022-08-24T08:10:02.445Z,19.74
2022-08-24T08:12:32.093Z,19.86
2022-08-24T08:15:00.141Z,20.03
2022-08-24T08:17:28.350Z,20.29
2022-08-24T08:19:56.532Z,20.64
2022-08-24T08:22:50.614Z,20.63
2022-08-24T08:25:19.368Z,20.89
2022-08-24T08:27:48.771Z,21.39
2022-08-24T08:30:17.140Z,21.59
2022-08-24T08:32:45.245Z,21.74
2022-08-24T08:35:13.979Z,21.64
2022-08-24T08:37:42.828Z,21.45
2022-08-24T08:40:25.708Z,21.57
2022-08-24T08:43:07.589Z,21.89
2022-08-24T08:45:49.151Z,21.87
2022-08-24T08:48:49.514Z,22.00
2022-08-24T08:51:39.602Z,22.31
2022-08-24T08:54:18.115Z,22.65
2022-08-24T08:57:02.032Z,22.95
2022-08-24T08:59:45.733Z,23.35
2022-08-24T09:02:30.260Z,23.50
2022-08-24T09:05:38.649Z,23.55
2022-08-24T09:08:17.435Z,23.49
2022-08-24T09:10:58.035Z,23.53
2022-08-24T09:13:58.568Z,23.67
2022-08-24T09:16:43.090Z,23.83
2022-08-24T09:19:31.525Z,24.14
2022-08-24T09:22:10.618Z,24.35
2022-08-24T09:25:18.978Z,24.50
2022-08-24T09:28:14.682Z,24.83
2022-08-24T09:31:04.870Z,25.64
2022-08-24T09:33:39.437Z,26.48
2022-08-24T09:36:13.188Z,26.86
2022-08-24T09:38:59.360Z,27.12
2022-08-24T09:41:55.848Z,27.50
2022-08-24T09:45:02.072Z,28.08
2022-08-24T09:47:56.808Z,29.17
2022-08-24T09:50:51.282Z,29.43
2022-08-24T09:53:43.683Z,30.29
2022-08-24T09:56:24.790Z,31.10
2022-08-24T09:59:13.147Z,32.18
2022-08-24T10:01:49.877Z,32.93
2022-08-24T10:04:32.305Z,33.78
2022-08-24T10:07:13.145Z,33.29
2022-08-24T10:10:04.560Z,33.59
2022-08-24T10:12:47.129Z,34.16
2022-08-24T10:15:21.549Z,34.46
2022-08-24T10:18:32.322Z,34.53
2022-08-24T10:21:25.989Z,35.41
2022-08-24T10:24:17.028Z,34.67
2022-08-24T10:27:02.977Z,35.29
2022-08-24T10:29:48.949Z,35.62
2022-08-24T10:32:32.153Z,35.86
2022-08-24T10:35:05.797Z,36.17
2022-08-24T10:38:15.344Z,36.52
2022-08-24T10:40:54.570Z,35.63
2022-08-24T10:43:47.437Z,36.20
2022-08-24T10:46:38.890Z,35.44
2022-08-24T10:49:57.280Z,35.91
2022-08-24T10:52:56.867Z,35.79
2022-08-24T10:55:27.954Z,36.31
2022-08-24T10:58:34.208Z,36.33
2022-08-24T11:01:19.161Z,36.19
2022-08-24T11:03:53.988Z,36.51
2022-08-24T11:06:23.391Z,35.60
2022-08-24T11:08:59.095Z,35.67
2022-08-24T11:11:33.677Z,34.71
2022-08-24T11:14:06.423Z,34.70
2022-08-24T11:16:47.982Z,34.36
2022-08-24T11:19:32.792Z,33.73
2022-08-24T11:22:03.784Z,33.28
2022-08-24T11:24:42.277Z,32.77
2022-08-24T11:27:22.228Z,32.81
2022-08-24T11:30:01.153Z,32.18
2022-08-24T11:32:38.846Z,32.10
2022-08-24T11:35:10.891Z,31.65
2022-08-24T11:37:40.462Z,31.52
2022-08-24T11:40:11.053Z,31.59
2022-08-24T11:43:16.903Z,31.88
2022-08-24T11:45:58.501Z,31.85
2022-08-24T11:48:38.180Z,31.07
2022-08-24T11:51:23.948Z,30.51
2022-08-24T11:54:02.769Z,30.45
2022-08-24T11:56:41.260Z,30.32
2022-08-24T11:59:18.921Z,29.44
2022-08-24T12:01:55.071Z,28.83
2022-08-24T12:04:50.600Z,28.88
2022-08-24T12:07:33.025Z,28.22
2022-08-24T12:10:19.369Z,28.00
2022-08-24T12:12:53.518Z,27.46
2022-08-24T12:15:31.727Z,27.40
2022-08-24T12:18:05.817Z,27.12
2022-08-24T12:20:43.069Z,26.96
2022-08-24T12:23:25.799Z,26.58
2022-08-24T12:26:04.484Z,26.43
2022-08-24T12:28:38.016Z,26.51
2022-08-24T12:31:13.266Z,26.50
2022-08-24T12:33:50.235Z,26.08
2022-08-24T12:36:32.363Z,25.85
2022-08-24T12:39:10.048Z,26.13
2022-08-24T12:41:49.308Z,26.13
2022-08-24T12:44:18.612Z,26.07
2022-08-24T12:46:54.712Z,25.97
2022-08-24T12:49:30.173Z,25.77
2022-08-24T12:52:23.890Z,25.64
2022-08-24T12:55:16.352Z,25.40
2022-08-24T12:57:58.438Z,25.61
2022-08-24T13:00:35.040Z,25.61
2022-08-24T13:03:05.990Z,25.59
2022-08-24T13:05:52.012Z,25.57
2022-08-24T13:08:38.098Z,25.29
2022-08-24T13:11:17.064Z,25.64
2022-08-24T13:14:05.962Z,25.44
2022-08-24T13:16:53.847Z,25.61
2022-08-24T13:19:36.280Z,25.55
2022-08-24T13:22:40.015Z,25.57
2022-08-24T13:25:42.743Z,25.35
2022-08-24T13:28:28.845Z,25.44
2022-08-24T13:31:28.427Z,25.34
2022-08-24T13:34:01.209Z,25.31
2022-08-24T13:36:56.435Z,25.49
2022-08-24T13:39:54.679Z,25.75
2022-08-24T13:43:04.266Z,26.20
2022-08-24T13:45:37.848Z,26.18
2022-08-24T13:48:28.057Z,26.25
2022-08-24T13:51:21.597Z,26.50
2022-08-24T13:54:04.034Z,26.82
2022-08-24T13:56:46.852Z,27.25
2022-08-24T13:59:22.607Z,27.52
2022-08-24T14:02:06.588Z,27.86
2022-08-24T14:04:56.317Z,28.45
2022-08-24T14:07:30.572Z,29.39
2022-08-24T14:10:15.552Z,30.39
2022-08-24T14:12:58.793Z,31.94
2022-08-24T14:15:46.581Z,31.96
2022-08-24T14:18:23.312Z,32.93
2022-08-24T14:21:10.115Z,32.95
2022-08-24T14:24:03.996Z,33.74
2022-08-24T14:27:08.402Z,35.37
2022-08-24T14:29:46.962Z,36.03
2022-08-24T14:32:40.326Z,36.78
2022-08-24T14:35:32.747Z,37.54
2022-08-24T14:38:26.387Z,38.07
2022-08-24T14:41:11.560Z,38.37
2022-08-24T14:44:08.572Z,38.96
2022-08-24T14:46:45.540Z,39.07
2022-08-24T14:49:22.441Z,39.62
2022-08-24T14:52:05.138Z,39.81
2022-08-24T14:54:42.638Z,39.81
2022-08-24T14:57:37.087Z,39.13
2022-08-24T15:00:13.904Z,38.56
2022-08-24T15:03:12.150Z,38.01
2022-08-24T15:06:09.501Z,38.08
2022-08-24T15:08:48.437Z,38.31
2022-08-24T15:11:29.622Z,38.22
2022-08-24T15:14:07.337Z,38.01
2022-08-24T15:16:53.423Z,38.29
2022-08-24T15:19:30.412Z,38.36
2022-08-24T15:22:03.868Z,38.43
2022-08-24T15:24:41.070Z,38.13
2022-08-24T15:27:19.905Z,38.19
2022-08-24T15:29:55.185Z,36.97
2022-08-24T15:32:28.233Z,35.13
2022-08-24T15:34:58.727Z,33.08
2022-08-24T15:37:33.111Z,30.72
2022-08-24T15:40:02.778Z,29.58
2022-08-24T15:42:35.500Z,28.33
2022-08-24T15:45:05.828Z,27.16
2022-08-24T15:47:41.531Z,26.77
2022-08-24T15:50:23.840Z,26.44
2022-08-24T15:53:01.517Z,27.08
2022-08-24T15:55:39.283Z,28.63
2022-08-24T15:58:28.485Z,30.29
2022-08-24T16:01:37.619Z,31.57
2022-08-24T16:04:08.323Z,31.32
2022-08-24T16:06:42.583Z,29.91
2022-08-24T16:09:32.826Z,29.02
2022-08-24T16:12:04.810Z,29.08
2022-08-24T16:14:36.411Z,28.48
2022-08-24T16:17:22.229Z,27.78
2022-08-24T16:19:52.947Z,26.33
2022-08-24T16:22:33.131Z,25.44
2022-08-24T16:25:18.535Z,24.35
2022-08-24T16:28:19.030Z,24.17
2022-08-24T16:30:51.188Z,23.68
2022-08-24T16:33:43.320Z,23.15
2022-08-24T16:36:18.171Z,22.74
2022-08-24T16:38:49.514Z,22.70
2022-08-24T16:41:21.278Z,22.46
2022-08-24T16:43:50.314Z,22.32
2022-08-24T16:46:48.119Z,21.84
2022-08-24T16:49:22.282Z,21.89
2022-08-24T16:51:56.737Z,21.85
2022-08-24T16:54:25.030Z,21.81
2022-08-24T16:56:55.659Z,21.87
2022-08-24T16:59:30.904Z,21.86
2022-08-24T17:01:59.174Z,21.31
2022-08-24T17:04:27.644Z,21.64
2022-08-24T17:06:57.977Z,21.36
2022-08-24T17:09:28.488Z,21.33
2022-08-24T17:12:05.278Z,21.10
2022-08-24T17:14:37.676Z,20.95
2022-08-24T17:17:07.064Z,20.86
2022-08-24T17:19:35.572Z,20.76
2022-08-24T17:22:03.744Z,20.60
2022-08-24T17:24:33.844Z,20.49
2022-08-24T17:27:05.306Z,20.30
2022-08-24T17:29:33.656Z,20.11
2022-08-24T17:32:01.944Z,20.10
2022-08-24T17:34:32.388Z,19.97
2022-08-24T17:37:02.111Z,19.86
2022-08-24T17:39:30.360Z,19.61
2022-08-24T17:42:00.405Z,19.71
2022-08-24T17:44:33.390Z,19.54
2022-08-24T17:47:03.833Z,19.42
2022-08-24T17:49:32.319Z,19.30
2022-08-24T17:52:01.161Z,19.15
2022-08-24T17:54:29.533Z,18.82
2022-08-24T17:56:58.463Z,18.84
2022-08-24T17:59:32.358Z,18.57
2022-08-24T18:02:06.184Z,18.35
2022-08-24T18:04:36.486Z,18.06
2022-08-24T18:07:11.764Z,18.07
2022-08-24T18:09:46.126Z,17.88
2022-08-24T18:12:14.239Z,17.41
2022-08-24T18:14:43.669Z,17.50
2022-08-24T18:17:20.073Z,17.36
2022-08-24T18:19:54.301Z,17.17
2022-08-24T18:22:22.431Z,16.84
2022-08-24T18:24:50.409Z,16.78
2022-08-24T18:27:22.880Z,16.62
2022-08-24T18:29:54.942Z,16.53
2022-08-24T18:32:39.569Z,16.39
2022-08-24T18:35:15.057Z,16.00
2022-08-24T18:37:43.459Z,16.01
2022-08-24T18:40:12.574Z,16.08
2022-08-24T18:42:44.925Z,15.79
2022-08-24T18:45:15.043Z,15.82
2022-08-24T18:47:43.341Z,15.72
2022-08-24T18:50:12.204Z,15.54
2022-08-24T18:52:43.125Z,15.47
2022-08-24T18:55:15.014Z,15.33
2022-08-24T18:57:43.168Z,15.34
2022-08-24T19:00:13.134Z,15.30
2022-08-24T19:02:45.080Z,15.18
2022-08-24T19:05:21.378Z,15.13
2022-08-24T19:07:51.312Z,14.96
2022-08-24T19:10:23.661Z,14.92
2022-08-24T19:12:56.282Z,14.57
2022-08-24T19:15:32.618Z,14.79
2022-08-24T19:18:11.252Z,14.65
2022-08-24T19:20:46.033Z,14.64
2022-08-24T19:23:20.095Z,14.56
2022-08-24T19:25:49.223Z,14.32
2022-08-24T19:28:17.358Z,14.39
2022-08-24T19:30:46.850Z,14.05
2022-08-24T19:33:21.011Z,14.20
2022-08-24T19:35:49.293Z,14.17
2022-08-24T19:38:18.508Z,14.14
2022-08-24T19:40:49.849Z,14.00
2022-08-24T19:43:18.076Z,13.92
2022-08-24T19:46:06.340Z,13.74
2022-08-24T19:48:37.569Z,13.53
2022-08-24T19:51:08.813Z,13.73
2022-08-24T19:53:38.525Z,13.42
2022-08-24T19:56:07.977Z,13.59
2022-08-24T19:58:45.277Z,13.52
2022-08-24T20:01:18.471Z,13.46
2022-08-24T20:03:48.117Z,13.40
2022-08-24T20:06:17.773Z,13.17
2022-08-24T20:08:48.410Z,13.25
2022-08-24T20:11:17.623Z,13.14
2022-08-24T20:13:46.094Z,13.12
2022-08-24T20:16:18.004Z,13.06
2022-08-24T20:18:47.909Z,13.01
2022-08-24T20:21:16.941Z,12.86
2022-08-24T20:23:45.759Z,12.64
2022-08-24T20:26:14.830Z,12.59
2022-08-24T20:28:46.739Z,12.74
2022-08-24T20:31:15.196Z,12.59
2022-08-24T20:33:43.604Z,12.51
2022-08-24T20:36:22.907Z,12.36
2022-08-24T20:38:51.056Z,12.44
2022-08-24T20:41:19.389Z,12.38
2022-08-24T20:43:47.386Z,12.15
2022-08-24T20:46:15.655Z,12.22
2022-08-24T20:48:44.644Z,12.15
2022-08-24T20:51:15.378Z,12.06
2022-08-24T20:53:44.070Z,12.06
2022-08-24T20:56:16.610Z,11.97
2022-08-24T20:58:44.794Z,11.94
2022-08-24T21:01:12.923Z,11.90
2022-08-24T21:03:40.947Z,11.85
2022-08-24T21:06:10.890Z,11.79
2022-08-24T21:08:49.236Z,11.65
2022-08-24T21:11:17.850Z,11.68
2022-08-24T21:13:45.826Z,11.69
2022-08-24T21:16:15.954Z,11.65
2022-08-24T21:18:44.498Z,11.62
2022-08-24T21:21:12.515Z,11.59
2022-08-24T21:23:44.079Z,11.39
2022-08-24T21:26:16.279Z,11.53
2022-08-24T21:28:45.031Z,11.52
2022-08-24T21:31:13.087Z,11.32
2022-08-24T21:33:58.517Z,11.23
2022-08-24T21:36:31.912Z,11.46
2022-08-24T21:39:01.439Z,11.37
2022-08-24T21:41:29.569Z,11.35
2022-08-24T21:43:58.138Z,11.28
2022-08-24T21:46:32.849Z,11.25
2022-08-24T21:49:01.433Z,10.80
2022-08-24T21:51:29.832Z,11.22
2022-08-24T21:53:59.717Z,11.21
2022-08-24T21:56:33.165Z,11.17
2022-08-24T21:59:02.937Z,11.12
2022-08-24T22:01:30.997Z,11.11
2022-08-24T22:04:01.504Z,10.94
2022-08-24T22:06:31.802Z,11.03
2022-08-24T22:09:00.445Z,10.99
2022-08-24T22:11:30.802Z,10.94
2022-08-24T22:13:59.613Z,10.79
2022-08-24T22:16:27.737Z,10.60
2022-08-24T22:18:55.805Z,10.78
2022-08-24T22:21:29.470Z,10.75
2022-08-24T22:23:58.156Z,10.62
2022-08-24T22:26:27.075Z,10.52
2022-08-24T22:28:57.165Z,10.36
2022-08-24T22:31:27.911Z,10.40
2022-08-24T22:33:58.171Z,10.50
2022-08-24T22:36:27.789Z,10.18
2022-08-24T22:38:56.130Z,10.20
2022-08-24T22:41:24.668Z,10.42
2022-08-24T22:44:14.288Z,10.39
2022-08-24T22:46:42.638Z,10.33
2022-08-24T22:49:12.282Z,10.34
2022-08-24T22:51:41.425Z,10.27
2022-08-24T22:54:10.610Z,10.17
2022-08-24T22:56:41.443Z,10.12
2022-08-24T22:59:15.779Z,10.09
2022-08-24T23:01:46.006Z,10.03
2022-08-24T23:04:16.540Z,9.98
2022-08-24T23:06:44.730Z,9.87
2022-08-24T23:09:13.572Z,9.70
2022-08-24T23:11:41.925Z,9.95
2022-08-24T23:14:12.455Z,9.92
2022-08-24T23:16:44.749Z,9.75
2022-08-24T23:19:30.223Z,9.83
2022-08-24T23:21:58.791Z,9.80
2022-08-24T23:24:26.758Z,9.75
2022-08-24T23:26:55.430Z,9.75
2022-08-24T23:29:25.212Z,9.68
2022-08-24T23:31:53.974Z,9.70
2022-08-24T23:34:22.667Z,9.47
2022-08-24T23:36:51.742Z,9.61
2022-08-24T23:39:21.291Z,9.57
2022-08-24T23:41:50.845Z,9.61
2022-08-24T23:44:21.887Z,9.59
2022-08-24T23:46:54.326Z,9.62
2022-08-24T23:49:24.333Z,9.51
2022-08-24T23:51:53.321Z,9.57
2022-08-24T23:54:22.070Z,9.55
2022-08-24T23:56:51.093Z,9.55
2022-08-24T23:59:21.242Z,9.49
